M/V Reecon Emre — 9HA2886 — position and weather

sailwx.info

Track history (hours):
 
Tides and Currents Weather Stations Pressure Air Temp Water Temp Dewpoint Dewpoint Depression Visibility Wind Speed Wind Dir Waves Ship Positions

M/V Reecon Emre

Last reported at 2018-May-26 13:57 UTC. Time now 2018-May-26 14:02 UTC.
Position N 35°45' W 000°38'.

Length 145 m; draft 8.3 m.

Type: Ship (hazmat cat A). MMSI: 256589000.

Date/timePositionNaut miles runAvg speedWind from/ knotsBaromVisibWave heightAir tempDewpointWater temp
2018-May-26 13:57N 35°45' W 000°38'0 0.0
2018-May-26 13:15N 35°45' W 000°38'0 0.0
2018-May-26 12:57N 35°45' W 000°38'0 0.0
2018-May-26 12:27N 35°45' W 000°38'13 1.4
2018-May-26 02:59N 35°58' W 000°32'3510.0
2018-May-25 23:27N 36°32' W 000°20'2010.6
2018-May-25 21:36N 36°51' W 000°15'111.0
2018-May-25 21:30N 36°52' W 000°14'710.9
2018-May-25 20:54N 36°59' W 000°12'411.0
2018-May-25 20:30N 37°03' W 000°11'611.4
2018-May-25 19:58N 37°09' W 000°10'711.8
2018-May-25 19:22N 37°16' W 000°07'411.9
2018-May-25 18:59N 37°20' W 000°05'611.9
2018-May-25 18:30N 37°25' W 000°03'611.8
2018-May-25 18:00N 37°31' W 000°02'611.4
2018-May-25 17:30N 37°37' W 000°01'510.9
2018-May-25 17:00N 37°42' E 000°00'610.7
2018-May-25 16:28N 37°48' E 000°02'511.3
2018-May-25 16:00N 37°53' E 000°03'612.3
2018-May-25 15:30N 37°59' E 000°05'612.1
2018-May-25 15:00N 38°05' E 000°07'81 9.6
2018-May-25 06:36N 39°24' W 000°14'110.0
2018-May-25 06:30N 39°24' W 000°15'4 8.2
2018-May-25 06:00N 39°27' W 000°19'0 0.3
2018-May-25 05:29N 39°27' W 000°19'0 0.0
2018-May-25 04:59N 39°27' W 000°19'0 0.0
2018-May-25 04:29N 39°27' W 000°19'0 0.0
2018-May-25 03:47N 39°27' W 000°19'0 0.0
2018-May-25 03:29N 39°27' W 000°19'0 0.0
2018-May-25 02:59N 39°27' W 000°19'0 0.0
2018-May-25 02:29N 39°27' W 000°19'0 0.0
2018-May-25 01:59N 39°27' W 000°19'0 0.0
2018-May-25 00:08N 39°27' W 000°19'0 0.0
2018-May-24 23:56N 39°27' W 000°19'0 0.0
2018-May-24 23:11N 39°27' W 000°19'0 0.0
2018-May-24 22:59N 39°27' W 000°19'0 0.0
2018-May-24 22:29N 39°27' W 000°19'0 0.0
2018-May-24 21:59N 39°27' W 000°19'0 0.0
2018-May-24 21:29N 39°27' W 000°19'0 0.0
2018-May-24 20:59N 39°27' W 000°19'0 0.0
2018-May-24 20:29N 39°27' W 000°19'0 0.0
2018-May-24 19:59N 39°27' W 000°19'0 0.0
2018-May-24 19:29N 39°27' W 000°19'0 0.0
2018-May-24 18:50N 39°27' W 000°19'0 0.0
2018-May-24 18:29N 39°27' W 000°19'0 0.0
2018-May-24 17:59N 39°27' W 000°19'0 0.0
2018-May-24 17:29N 39°27' W 000°19'0 0.0
2018-May-24 16:59N 39°27' W 000°19'0 0.0
2018-May-24 16:29N 39°27' W 000°19'0 0.0
2018-May-24 15:59N 39°27' W 000°19'0 0.0
2018-May-24 15:29N 39°27' W 000°19'0 0.0
2018-May-24 14:59N 39°27' W 000°19'0 0.0
2018-May-24 14:29N 39°27' W 000°19'0 0.0
2018-May-24 13:59N 39°27' W 000°19'0 0.0
2018-May-24 13:29N 39°27' W 000°19'3 0.7
2018-May-24 09:01N 39°25' W 000°17'4 8.4
2018-May-24 08:31N 39°22' W 000°12'0 0.3
2018-May-24 07:57N 39°22' W 000°13'68 9.4
2018-May-24 00:43N 38°18' E 000°18'211.2
2018-May-24 00:30N 38°16' E 000°17'611.3
2018-May-23 23:59N 38°10' E 000°15'611.4
2018-May-23 23:30N 38°05' E 000°13'1311.3
2018-May-23 22:22N 37°53' E 000°09'1111.0
2018-May-23 21:24N 37°42' E 000°06'410.5
2018-May-23 21:00N 37°38' E 000°05'510.2
2018-May-23 20:31N 37°33' E 000°03'510.2
2018-May-23 20:00N 37°28' E 000°01'510.1
2018-May-23 19:31N 37°24' W 000°00'510.1
2018-May-23 19:00N 37°19' W 000°02'510.1
2018-May-23 18:29N 37°14' W 000°04'510.0
2018-May-23 18:00N 37°09' W 000°06'510.2
2018-May-23 17:30N 37°04' W 000°07'510.6
2018-May-23 17:00N 36°59' W 000°09'611.1
2018-May-23 16:30N 36°53' W 000°10'611.4
2018-May-23 16:00N 36°48' W 000°12'611.4
2018-May-23 15:31N 36°42' W 000°13'510.8
2018-May-23 15:00N 36°37' W 000°15'510.5
2018-May-23 14:30N 36°32' W 000°16'510.3
2018-May-23 14:01N 36°27' W 000°18'510.3
2018-May-23 13:30N 36°22' W 000°19'510.6
2018-May-23 13:00N 36°17' W 000°21'611.1
2018-May-23 12:30N 36°11' W 000°23'611.5
2018-May-23 12:00N 36°06' W 000°24'611.9
2018-May-23 11:30N 36°00' W 000°27'612.0
2018-May-23 11:01N 35°55' W 000°31'611.7
2018-May-23 10:30N 35°50' W 000°35'611.5
2018-May-23 10:00N 35°45' W 000°37'2 1.2
2018-May-23 08:10N 35°43' W 000°38'0 0.0
2018-May-23 07:58N 35°43' W 000°38'0 0.0
2018-May-23 07:16N 35°43' W 000°38'0 0.0
2018-May-23 04:40N 35°43' W 000°38'0 0.0
2018-May-23 03:22N 35°43' W 000°38'0 0.0
2018-May-23 00:22N 35°43' W 000°38'0 0.0
2018-May-22 21:10N 35°43' W 000°38'0 0.0
2018-May-22 20:58N 35°43' W 000°38'0 0.0
2018-May-22 20:28N 35°43' W 000°38'0 0.0
2018-May-22 18:46N 35°43' W 000°38'0 0.0
2018-May-22 18:28N 35°43' W 000°38'0 0.0
2018-May-22 15:40N 35°43' W 000°38'0 0.0
2018-May-22 12:52N 35°43' W 000°38'0 0.0
2018-May-22 12:22N 35°43' W 000°38'0 0.0
2018-May-22 11:58N 35°43' W 000°38'0 0.0
2018-May-22 11:28N 35°43' W 000°38'0 0.0
2018-May-22 10:52N 35°43' W 000°38'0 0.0
2018-May-22 10:22N 35°43' W 000°38'0 0.0
2018-May-22 09:46N 35°43' W 000°38'0 0.0
2018-May-21 17:22N 35°43' W 000°38'0 0.0
2018-May-21 16:58N 35°43' W 000°38'0 0.0
2018-May-21 16:28N 35°43' W 000°38'0 0.0
2018-May-21 15:58N 35°43' W 000°38'  
Track history (hours):
 
Tides and Currents Weather Stations Pressure Air Temp Water Temp Dewpoint Dewpoint Depression Visibility Wind Speed Wind Dir Waves Ship Positions

M/V Reecon Emre

Last reported at 2018-May-26 13:57 UTC. Time now 2018-May-26 14:02 UTC.
Position N 35°45' W 000°38'.

Length 145 m; draft 8.3 m.

Type: Ship (hazmat cat A). MMSI: 256589000.

Date/timePositionNaut miles runAvg speedWind from/ knotsBaromVisibWave heightAir tempDewpointWater temp
2018-May-26 13:57N 35°45' W 000°38'0 0.0
2018-May-26 13:15N 35°45' W 000°38'0 0.0
2018-May-26 12:57N 35°45' W 000°38'0 0.0
2018-May-26 12:27N 35°45' W 000°38'13 1.4
2018-May-26 02:59N 35°58' W 000°32'3510.0
2018-May-25 23:27N 36°32' W 000°20'2010.6
2018-May-25 21:36N 36°51' W 000°15'111.0
2018-May-25 21:30N 36°52' W 000°14'710.9
2018-May-25 20:54N 36°59' W 000°12'411.0
2018-May-25 20:30N 37°03' W 000°11'611.4
2018-May-25 19:58N 37°09' W 000°10'711.8
2018-May-25 19:22N 37°16' W 000°07'411.9
2018-May-25 18:59N 37°20' W 000°05'611.9
2018-May-25 18:30N 37°25' W 000°03'611.8
2018-May-25 18:00N 37°31' W 000°02'611.4
2018-May-25 17:30N 37°37' W 000°01'510.9
2018-May-25 17:00N 37°42' E 000°00'610.7
2018-May-25 16:28N 37°48' E 000°02'511.3
2018-May-25 16:00N 37°53' E 000°03'612.3
2018-May-25 15:30N 37°59' E 000°05'612.1
2018-May-25 15:00N 38°05' E 000°07'81 9.6
2018-May-25 06:36N 39°24' W 000°14'110.0
2018-May-25 06:30N 39°24' W 000°15'4 8.2
2018-May-25 06:00N 39°27' W 000°19'0 0.3
2018-May-25 05:29N 39°27' W 000°19'0 0.0
2018-May-25 04:59N 39°27' W 000°19'0 0.0
2018-May-25 04:29N 39°27' W 000°19'0 0.0
2018-May-25 03:47N 39°27' W 000°19'0 0.0
2018-May-25 03:29N 39°27' W 000°19'0 0.0
2018-May-25 02:59N 39°27' W 000°19'0 0.0
2018-May-25 02:29N 39°27' W 000°19'0 0.0
2018-May-25 01:59N 39°27' W 000°19'0 0.0
2018-May-25 00:08N 39°27' W 000°19'0 0.0
2018-May-24 23:56N 39°27' W 000°19'0 0.0
2018-May-24 23:11N 39°27' W 000°19'0 0.0
2018-May-24 22:59N 39°27' W 000°19'0 0.0
2018-May-24 22:29N 39°27' W 000°19'0 0.0
2018-May-24 21:59N 39°27' W 000°19'0 0.0
2018-May-24 21:29N 39°27' W 000°19'0 0.0
2018-May-24 20:59N 39°27' W 000°19'0 0.0
2018-May-24 20:29N 39°27' W 000°19'0 0.0
2018-May-24 19:59N 39°27' W 000°19'0 0.0
2018-May-24 19:29N 39°27' W 000°19'0 0.0
2018-May-24 18:50N 39°27' W 000°19'0 0.0
2018-May-24 18:29N 39°27' W 000°19'0 0.0
2018-May-24 17:59N 39°27' W 000°19'0 0.0
2018-May-24 17:29N 39°27' W 000°19'0 0.0
2018-May-24 16:59N 39°27' W 000°19'0 0.0
2018-May-24 16:29N 39°27' W 000°19'0 0.0
2018-May-24 15:59N 39°27' W 000°19'0 0.0
2018-May-24 15:29N 39°27' W 000°19'0 0.0
2018-May-24 14:59N 39°27' W 000°19'0 0.0
2018-May-24 14:29N 39°27' W 000°19'0 0.0
2018-May-24 13:59N 39°27' W 000°19'0 0.0
2018-May-24 13:29N 39°27' W 000°19'3 0.7
2018-May-24 09:01N 39°25' W 000°17'4 8.4
2018-May-24 08:31N 39°22' W 000°12'0 0.3
2018-May-24 07:57N 39°22' W 000°13'68 9.4
2018-May-24 00:43N 38°18' E 000°18'211.2
2018-May-24 00:30N 38°16' E 000°17'611.3
2018-May-23 23:59N 38°10' E 000°15'611.4
2018-May-23 23:30N 38°05' E 000°13'1311.3
2018-May-23 22:22N 37°53' E 000°09'1111.0
2018-May-23 21:24N 37°42' E 000°06'410.5
2018-May-23 21:00N 37°38' E 000°05'510.2
2018-May-23 20:31N 37°33' E 000°03'510.2
2018-May-23 20:00N 37°28' E 000°01'510.1
2018-May-23 19:31N 37°24' W 000°00'510.1
2018-May-23 19:00N 37°19' W 000°02'510.1
2018-May-23 18:29N 37°14' W 000°04'510.0
2018-May-23 18:00N 37°09' W 000°06'510.2
2018-May-23 17:30N 37°04' W 000°07'510.6
2018-May-23 17:00N 36°59' W 000°09'611.1
2018-May-23 16:30N 36°53' W 000°10'611.4
2018-May-23 16:00N 36°48' W 000°12'611.4
2018-May-23 15:31N 36°42' W 000°13'510.8
2018-May-23 15:00N 36°37' W 000°15'510.5
2018-May-23 14:30N 36°32' W 000°16'510.3
2018-May-23 14:01N 36°27' W 000°18'510.3
2018-May-23 13:30N 36°22' W 000°19'510.6
2018-May-23 13:00N 36°17' W 000°21'611.1
2018-May-23 12:30N 36°11' W 000°23'611.5
2018-May-23 12:00N 36°06' W 000°24'611.9
2018-May-23 11:30N 36°00' W 000°27'612.0
2018-May-23 11:01N 35°55' W 000°31'611.7
2018-May-23 10:30N 35°50' W 000°35'611.5
2018-May-23 10:00N 35°45' W 000°37'2 1.2
2018-May-23 08:10N 35°43' W 000°38'0 0.0
2018-May-23 07:58N 35°43' W 000°38'0 0.0
2018-May-23 07:16N 35°43' W 000°38'0 0.0
2018-May-23 04:40N 35°43' W 000°38'0 0.0
2018-May-23 03:22N 35°43' W 000°38'0 0.0
2018-May-23 00:22N 35°43' W 000°38'0 0.0
2018-May-22 21:10N 35°43' W 000°38'0 0.0
2018-May-22 20:58N 35°43' W 000°38'0 0.0
2018-May-22 20:28N 35°43' W 000°38'0 0.0
2018-May-22 18:46N 35°43' W 000°38'0 0.0
2018-May-22 18:28N 35°43' W 000°38'0 0.0
2018-May-22 15:40N 35°43' W 000°38'0 0.0
2018-May-22 12:52N 35°43' W 000°38'0 0.0
2018-May-22 12:22N 35°43' W 000°38'0 0.0
2018-May-22 11:58N 35°43' W 000°38'0 0.0
2018-May-22 11:28N 35°43' W 000°38'0 0.0
2018-May-22 10:52N 35°43' W 000°38'0 0.0
2018-May-22 10:22N 35°43' W 000°38'0 0.0
2018-May-22 09:46N 35°43' W 000°38'0 0.0
2018-May-21 17:22N 35°43' W 000°38'0 0.0
2018-May-21 16:58N 35°43' W 000°38'0 0.0
2018-May-21 16:28N 35°43' W 000°38'0 0.0
2018-May-21 15:58N 35°43' W 000°38'  

Dump ship's entire track history